sensor_id;sensor_type;location;lat;lon;timestamp;P1;durP1;ratioP1;P2;durP2;ratioP2
43413;SDS011;73638;49.676;8.606;2024-02-04T00:03:06;1.7405;;;2.387;;
43413;SDS011;73638;49.676;8.606;2024-02-04T00:08:13;1.8778;;;2.9083;;
43413;SDS011;73638;49.676;8.606;2024-02-04T00:13:20;1.6733;;;3.0434;;
43413;SDS011;73638;49.676;8.606;2024-02-04T00:18:27;1.8508;;;2.9943;;
43413;SDS011;73638;49.676;8.606;2024-02-04T00:23:33;1.4406;;;2.5058;;
43413;SDS011;73638;49.676;8.606;2024-02-04T00:28:40;1.8769;;;3.532;;
43413;SDS011;73638;49.676;8.606;2024-02-04T00:33:47;1.2112;;;1.4719;;
43413;SDS011;73638;49.676;8.606;2024-02-04T00:38:54;1.6403;;;2.2918;;
43413;SDS011;73638;49.676;8.606;2024-02-04T00:44:01;1.1909;;;1.6695;;
43413;SDS011;73638;49.676;8.606;2024-02-04T00:49:07;1.1192;;;1.097;;
43413;SDS011;73638;49.676;8.606;2024-02-04T00:54:19;1.1674;;;1.583;;
43413;SDS011;73638;49.676;8.606;2024-02-04T00:59:20;1.2253;;;2.9452;;
43413;SDS011;73638;49.676;8.606;2024-02-04T01:04:27;1.1706;;;1.7591;;
43413;SDS011;73638;49.676;8.606;2024-02-04T01:09:34;1.4754;;;2.0759;;
43413;SDS011;73638;49.676;8.606;2024-02-04T01:14:41;1.5731;;;1.7788;;
43413;SDS011;73638;49.676;8.606;2024-02-04T01:19:48;1.7164;;;3.601;;
43413;SDS011;73638;49.676;8.606;2024-02-04T01:24:55;1.256;;;1.8334;;
43413;SDS011;73638;49.676;8.606;2024-02-04T01:30:01;1.3639;;;2.5708;;
43413;SDS011;73638;49.676;8.606;2024-02-04T01:35:08;1.1894;;;2.0383;;
43413;SDS011;73638;49.676;8.606;2024-02-04T01:40:15;1.3629;;;2.8935;;
43413;SDS011;73638;49.676;8.606;2024-02-04T01:45:22;1.0132;;;2.8838;;
43413;SDS011;73638;49.676;8.606;2024-02-04T01:50:28;1.0794;;;1.7484;;
43413;SDS011;73638;49.676;8.606;2024-02-04T01:55:35;0.9203;;;1.8025;;
43413;SDS011;73638;49.676;8.606;2024-02-04T02:00:41;1.0866;;;1.5821;;
43413;SDS011;73638;49.676;8.606;2024-02-04T02:05:48;1.098;;;2.5864;;
43413;SDS011;73638;49.676;8.606;2024-02-04T02:10:57;1.0555;;;1.539;;
43413;SDS011;73638;49.676;8.606;2024-02-04T02:16:04;1.1868;;;3.7783;;
43413;SDS011;73638;49.676;8.606;2024-02-04T02:21:13;0.9177;;;0.9381;;
43413;SDS011;73638;49.676;8.606;2024-02-04T02:26:15;1.2405;;;3.7035;;
43413;SDS011;73638;49.676;8.606;2024-02-04T02:31:35;1.4913;;;1.909;;
43413;SDS011;73638;49.676;8.606;2024-02-04T02:36:30;1.8981;;;2.2305;;
43413;SDS011;73638;49.676;8.606;2024-02-04T02:41:36;1.479;;;1.7432;;
43413;SDS011;73638;49.676;8.606;2024-02-04T02:46:42;1.8033;;;1.9409;;
43413;SDS011;73638;49.676;8.606;2024-02-04T02:51:49;1.9241;;;2.6107;;
43413;SDS011;73638;49.676;8.606;2024-02-04T02:56:55;2.1878;;;2.9233;;
43413;SDS011;73638;49.676;8.606;2024-02-04T03:02:02;2.1975;;;2.9521;;
43413;SDS011;73638;49.676;8.606;2024-02-04T03:07:09;2.5822;;;3.5727;;
43413;SDS011;73638;49.676;8.606;2024-02-04T03:12:16;2.4342;;;2.716;;
43413;SDS011;73638;49.676;8.606;2024-02-04T03:17:28;2.4734;;;5.0798;;
43413;SDS011;73638;49.676;8.606;2024-02-04T03:22:29;2.673;;;3.0937;;
43413;SDS011;73638;49.676;8.606;2024-02-04T03:27:36;2.9408;;;3.8312;;
43413;SDS011;73638;49.676;8.606;2024-02-04T03:32:43;2.639;;;3.229;;
43413;SDS011;73638;49.676;8.606;2024-02-04T03:37:50;2.6963;;;5.0847;;
43413;SDS011;73638;49.676;8.606;2024-02-04T03:42:57;2.9222;;;4.5646;;
43413;SDS011;73638;49.676;8.606;2024-02-04T03:48:04;3.0156;;;3.8554;;
43413;SDS011;73638;49.676;8.606;2024-02-04T03:53:10;2.3908;;;2.6947;;
43413;SDS011;73638;49.676;8.606;2024-02-04T03:58:19;2.136;;;4.4152;;
43413;SDS011;73638;49.676;8.606;2024-02-04T04:03:24;2.2198;;;3.1211;;
43413;SDS011;73638;49.676;8.606;2024-02-04T04:08:31;2.3274;;;2.7502;;
43413;SDS011;73638;49.676;8.606;2024-02-04T04:13:37;2.6996;;;3.1196;;
43413;SDS011;73638;49.676;8.606;2024-02-04T04:18:44;2.0327;;;2.7601;;
43413;SDS011;73638;49.676;8.606;2024-02-04T04:23:51;2.2018;;;3.3068;;
43413;SDS011;73638;49.676;8.606;2024-02-04T04:28:58;1.9072;;;2.4015;;
43413;SDS011;73638;49.676;8.606;2024-02-04T04:34:05;2.4495;;;3.3106;;
43413;SDS011;73638;49.676;8.606;2024-02-04T04:39:11;2.2007;;;4.639;;
43413;SDS011;73638;49.676;8.606;2024-02-04T04:44:18;2.4072;;;5.0908;;
43413;SDS011;73638;49.676;8.606;2024-02-04T04:49:25;2.1236;;;2.5453;;
43413;SDS011;73638;49.676;8.606;2024-02-04T04:54:31;2.1228;;;2.9272;;
43413;SDS011;73638;49.676;8.606;2024-02-04T04:59:39;2.8677;;;5.4738;;
43413;SDS011;73638;49.676;8.606;2024-02-04T05:04:45;2.4283;;;4.0381;;
43413;SDS011;73638;49.676;8.606;2024-02-04T05:09:52;2.5339;;;2.9282;;
43413;SDS011;73638;49.676;8.606;2024-02-04T05:14:59;2.4288;;;3.6803;;
43413;SDS011;73638;49.676;8.606;2024-02-04T05:20:07;1.357;;;1.5916;;
43413;SDS011;73638;49.676;8.606;2024-02-04T05:25:12;0.8185;;;1.0349;;
43413;SDS011;73638;49.676;8.606;2024-02-04T05:30:19;0.8937;;;0.9178;;
43413;SDS011;73638;49.676;8.606;2024-02-04T05:35:26;0.3476;;;0.3126;;
43413;SDS011;73638;49.676;8.606;2024-02-04T05:40:33;0.4791;;;0.595;;
43413;SDS011;73638;49.676;8.606;2024-02-04T05:45:40;0.3229;;;0.3409;;
43413;SDS011;73638;49.676;8.606;2024-02-04T05:50:47;0.2372;;;0.2139;;
43413;SDS011;73638;49.676;8.606;2024-02-04T05:55:53;0.303;;;0.4191;;
43413;SDS011;73638;49.676;8.606;2024-02-04T06:01:02;0.1922;;;0.1737;;
43413;SDS011;73638;49.676;8.606;2024-02-04T06:06:07;0.3793;;;0.5761;;
43413;SDS011;73638;49.676;8.606;2024-02-04T06:11:14;0.2632;;;0.3801;;
43413;SDS011;73638;49.676;8.606;2024-02-04T06:16:20;0.2481;;;0.243;;
43413;SDS011;73638;49.676;8.606;2024-02-04T06:21:27;0.2685;;;0.6425;;
43413;SDS011;73638;49.676;8.606;2024-02-04T06:26:37;0.1924;;;0.1741;;
43413;SDS011;73638;49.676;8.606;2024-02-04T06:31:43;0.2022;;;0.3563;;
43413;SDS011;73638;49.676;8.606;2024-02-04T06:36:48;0.4205;;;0.8906;;
43413;SDS011;73638;49.676;8.606;2024-02-04T06:41:54;0.3903;;;0.3584;;
43413;SDS011;73638;49.676;8.606;2024-02-04T06:47:01;0.1927;;;0.1747;;
43413;SDS011;73638;49.676;8.606;2024-02-04T06:52:08;0.4214;;;1.1302;;
43413;SDS011;73638;49.676;8.606;2024-02-04T06:57:14;0.1778;;;0.1617;;
43413;SDS011;73638;49.676;8.606;2024-02-04T07:02:21;0.2438;;;0.2632;;
43413;SDS011;73638;49.676;8.606;2024-02-04T07:07:28;0.2643;;;0.2452;;
43413;SDS011;73638;49.676;8.606;2024-02-04T07:12:35;0.2036;;;0.668;;
43413;SDS011;73638;49.676;8.606;2024-02-04T07:17:41;0.2955;;;0.2977;;
43413;SDS011;73638;49.676;8.606;2024-02-04T07:22:48;0.2903;;;0.4183;;
43413;SDS011;73638;49.676;8.606;2024-02-04T07:22:50;0.2903;;;0.4183;;
43413;SDS011;73638;49.676;8.606;2024-02-04T07:27:57;0.102;;;0.0932;;
43413;SDS011;73638;49.676;8.606;2024-02-04T07:33:04;0.1937;;;0.382;;
43413;SDS011;73638;49.676;8.606;2024-02-04T07:38:10;0.2145;;;0.1965;;
43413;SDS011;73638;49.676;8.606;2024-02-04T07:43:17;0.1685;;;0.234;;
43413;SDS011;73638;49.676;8.606;2024-02-04T07:48:24;0.3219;;;1.8645;;
43413;SDS011;73638;49.676;8.606;2024-02-04T07:53:31;0.5604;;;3.0091;;
43413;SDS011;73638;49.676;8.606;2024-02-04T07:58:38;1.0162;;;1.6592;;
43413;SDS011;73638;49.676;8.606;2024-02-04T08:03:45;0.5992;;;0.6508;;
43413;SDS011;73638;49.676;8.606;2024-02-04T08:08:52;0.4012;;;0.8079;;
43413;SDS011;73638;49.676;8.606;2024-02-04T08:13:58;0.4269;;;0.5273;;
43413;SDS011;73638;49.676;8.606;2024-02-04T08:19:05;0.4578;;;0.6487;;
43413;SDS011;73638;49.676;8.606;2024-02-04T08:24:12;0.4888;;;0.771;;
43413;SDS011;73638;49.676;8.606;2024-02-04T08:29:18;0.7506;;;4.6822;;
43413;SDS011;73638;49.676;8.606;2024-02-04T08:34:25;0.8413;;;1.072;;
43413;SDS011;73638;49.676;8.606;2024-02-04T08:39:32;0.6428;;;1.0361;;
43413;SDS011;73638;49.676;8.606;2024-02-04T08:44:40;0.8472;;;0.9156;;
43413;SDS011;73638;49.676;8.606;2024-02-04T08:49:46;0.6721;;;0.9244;;
43413;SDS011;73638;49.676;8.606;2024-02-04T08:54:52;0.8454;;;1.6498;;
43413;SDS011;73638;49.676;8.606;2024-02-04T08:59:59;0.6672;;;3.1981;;
43413;SDS011;73638;49.676;8.606;2024-02-04T09:05:06;0.6322;;;0.6524;;
43413;SDS011;73638;49.676;8.606;2024-02-04T09:10:12;0.646;;;1.844;;
43413;SDS011;73638;49.676;8.606;2024-02-04T09:15:19;0.7728;;;1.6942;;
43413;SDS011;73638;49.676;8.606;2024-02-04T09:20:26;0.6252;;;0.569;;
43413;SDS011;73638;49.676;8.606;2024-02-04T09:25:33;0.4225;;;0.6361;;
43413;SDS011;73638;49.676;8.606;2024-02-04T09:30:40;0.3573;;;0.9953;;
43413;SDS011;73638;49.676;8.606;2024-02-04T09:35:49;0.302;;;0.2919;;
43413;SDS011;73638;49.676;8.606;2024-02-04T09:40:56;0.1744;;;0.2272;;
43413;SDS011;73638;49.676;8.606;2024-02-04T09:46:02;0.3747;;;0.5216;;
43413;SDS011;73638;49.676;8.606;2024-02-04T09:51:09;0.1645;;;0.2808;;
43413;SDS011;73638;49.676;8.606;2024-02-04T09:56:19;0.2675;;;0.4532;;
43413;SDS011;73638;49.676;8.606;2024-02-04T10:01:23;0.2318;;;0.9766;;
43413;SDS011;73638;49.676;8.606;2024-02-04T10:06:30;0.3142;;;2.0067;;
43413;SDS011;73638;49.676;8.606;2024-02-04T10:11:37;0.2215;;;0.297;;
43413;SDS011;73638;49.676;8.606;2024-02-04T10:16:46;0.2323;;;0.241;;
43413;SDS011;73638;49.676;8.606;2024-02-04T10:22:00;0.3258;;;0.3246;;
43413;SDS011;73638;49.676;8.606;2024-02-04T10:26:59;0.1552;;;0.5001;;
43413;SDS011;73638;49.676;8.606;2024-02-04T10:32:06;0.207;;;0.2526;;
43413;SDS011;73638;49.676;8.606;2024-02-04T10:37:13;0.1967;;;0.2869;;
43413;SDS011;73638;49.676;8.606;2024-02-04T10:42:20;0.197;;;0.2734;;
43413;SDS011;73638;49.676;8.606;2024-02-04T10:47:29;0.1659;;;0.2295;;
43413;SDS011;73638;49.676;8.606;2024-02-04T10:52:35;0.1192;;;0.1121;;
43413;SDS011;73638;49.676;8.606;2024-02-04T10:57:41;0.2175;;;0.5065;;
43413;SDS011;73638;49.676;8.606;2024-02-04T11:02:47;0.0984;;;0.151;;
43413;SDS011;73638;49.676;8.606;2024-02-04T11:07:54;0.4242;;;1.2268;;
43413;SDS011;73638;49.676;8.606;2024-02-04T11:13:01;0.1188;;;0.111;;
43413;SDS011;73638;49.676;8.606;2024-02-04T11:18:27;0.4336;;;1.2966;;
43413;SDS011;73638;49.676;8.606;2024-02-04T11:23:19;0.2427;;;0.2654;;
43413;SDS011;73638;49.676;8.606;2024-02-04T11:28:21;0.2533;;;0.2902;;
43413;SDS011;73638;49.676;8.606;2024-02-04T11:33:28;0.2169;;;0.965;;
43413;SDS011;73638;49.676;8.606;2024-02-04T11:38:35;0.3358;;;0.396;;
43413;SDS011;73638;49.676;8.606;2024-02-04T11:43:42;0.4288;;;0.7248;;
43413;SDS011;73638;49.676;8.606;2024-02-04T11:48:52;0.2997;;;0.3482;;
43413;SDS011;73638;49.676;8.606;2024-02-04T11:53:56;0.4337;;;0.4051;;
43413;SDS011;73638;49.676;8.606;2024-02-04T11:59:03;0.3875;;;0.5073;;
43413;SDS011;73638;49.676;8.606;2024-02-04T12:04:10;0.5115;;;1.7346;;
43413;SDS011;73638;49.676;8.606;2024-02-04T12:09:17;0.3877;;;1.0694;;
43413;SDS011;73638;49.676;8.606;2024-02-04T12:14:23;0.4754;;;0.5947;;
43413;SDS011;73638;49.676;8.606;2024-02-04T12:19:30;0.5582;;;0.8609;;
43413;SDS011;73638;49.676;8.606;2024-02-04T12:24:42;0.4752;;;0.8641;;
43413;SDS011;73638;49.676;8.606;2024-02-04T12:29:43;0.3974;;;0.6601;;
43413;SDS011;73638;49.676;8.606;2024-02-04T12:34:51;0.3917;;;0.7005;;
43413;SDS011;73638;49.676;8.606;2024-02-04T12:39:57;0.2887;;;0.3265;;
43413;SDS011;73638;49.676;8.606;2024-02-04T12:45:04;0.2888;;;0.2691;;
43413;SDS011;73638;49.676;8.606;2024-02-04T12:50:11;0.5209;;;4.5937;;
43413;SDS011;73638;49.676;8.606;2024-02-04T12:55:19;0.4075;;;0.3799;;
43413;SDS011;73638;49.676;8.606;2024-02-04T13:00:24;0.3869;;;0.654;;
43413;SDS011;73638;49.676;8.606;2024-02-04T13:05:34;0.459;;;0.4999;;
43413;SDS011;73638;49.676;8.606;2024-02-04T13:10:40;0.3405;;;0.3752;;
43413;SDS011;73638;49.676;8.606;2024-02-04T13:15:47;0.387;;;0.7606;;
43413;SDS011;73638;49.676;8.606;2024-02-04T13:20:53;0.3148;;;0.9676;;
43413;SDS011;73638;49.676;8.606;2024-02-04T13:26:01;0.3767;;;0.924;;
43413;SDS011;73638;49.676;8.606;2024-02-04T13:31:07;0.3044;;;1.5836;;
43413;SDS011;73638;49.676;8.606;2024-02-04T13:36:14;0.2168;;;0.3034;;
43413;SDS011;73638;49.676;8.606;2024-02-04T13:41:21;0.3616;;;0.3573;;
43413;SDS011;73638;49.676;8.606;2024-02-04T13:46:28;0.4234;;;0.4532;;
43413;SDS011;73638;49.676;8.606;2024-02-04T13:51:45;0.3975;;;0.3903;;
43413;SDS011;73638;49.676;8.606;2024-02-04T13:56:42;0.3562;;;0.4386;;
43413;SDS011;73638;49.676;8.606;2024-02-04T14:01:49;0.3097;;;0.6023;;
43413;SDS011;73638;49.676;8.606;2024-02-04T14:06:56;0.2992;;;0.842;;
43413;SDS011;73638;49.676;8.606;2024-02-04T14:12:03;0.4538;;;1.3265;;
43413;SDS011;73638;49.676;8.606;2024-02-04T14:17:09;0.4486;;;1.0325;;
43413;SDS011;73638;49.676;8.606;2024-02-04T14:22:16;0.3711;;;0.8781;;
43413;SDS011;73638;49.676;8.606;2024-02-04T14:27:24;0.5517;;;2.5938;;
43413;SDS011;73638;49.676;8.606;2024-02-04T14:32:30;0.3869;;;1.0103;;
43413;SDS011;73638;49.676;8.606;2024-02-04T14:37:37;0.2888;;;0.4278;;
43413;SDS011;73638;49.676;8.606;2024-02-04T14:42:43;0.4228;;;2.3532;;
43413;SDS011;73638;49.676;8.606;2024-02-04T14:47:51;0.5157;;;0.8647;;
43413;SDS011;73638;49.676;8.606;2024-02-04T14:52:57;0.4021;;;0.5521;;
43413;SDS011;73638;49.676;8.606;2024-02-04T14:58:04;0.4994;;;1.2291;;
43413;SDS011;73638;49.676;8.606;2024-02-04T15:03:11;0.7619;;;1.989;;
43413;SDS011;73638;49.676;8.606;2024-02-04T15:08:17;0.576;;;0.777;;
43413;SDS011;73638;49.676;8.606;2024-02-04T15:13:25;0.6275;;;0.6344;;
43413;SDS011;73638;49.676;8.606;2024-02-04T15:18:31;0.8335;;;2.3339;;
43413;SDS011;73638;49.676;8.606;2024-02-04T15:23:38;0.6737;;;0.6246;;
43413;SDS011;73638;49.676;8.606;2024-02-04T15:28:45;0.7356;;;0.7396;;
43413;SDS011;73638;49.676;8.606;2024-02-04T15:33:52;0.633;;;0.6401;;
43413;SDS011;73638;49.676;8.606;2024-02-04T15:38:59;0.6068;;;0.8914;;
43413;SDS011;73638;49.676;8.606;2024-02-04T15:44:06;0.7515;;;0.7264;;
43413;SDS011;73638;49.676;8.606;2024-02-04T15:49:13;0.7255;;;1.8382;;
43413;SDS011;73638;49.676;8.606;2024-02-04T15:54:20;0.5811;;;0.6436;;
43413;SDS011;73638;49.676;8.606;2024-02-04T15:59:27;0.8223;;;1.5229;;
43413;SDS011;73638;49.676;8.606;2024-02-04T16:04:34;0.8014;;;0.9697;;
43413;SDS011;73638;49.676;8.606;2024-02-04T16:09:40;0.9203;;;0.967;;
43413;SDS011;73638;49.676;8.606;2024-02-04T16:14:48;0.7348;;;1.156;;
43413;SDS011;73638;49.676;8.606;2024-02-04T16:19:54;0.5755;;;0.5326;;
43413;SDS011;73638;49.676;8.606;2024-02-04T16:25:01;0.7553;;;1.0131;;
43413;SDS011;73638;49.676;8.606;2024-02-04T16:30:25;0.7502;;;1.1794;;
43413;SDS011;73638;49.676;8.606;2024-02-04T16:35:14;0.6523;;;0.8692;;
43413;SDS011;73638;49.676;8.606;2024-02-04T16:40:21;0.8472;;;1.9555;;
43413;SDS011;73638;49.676;8.606;2024-02-04T16:45:28;0.6373;;;0.8661;;
43413;SDS011;73638;49.676;8.606;2024-02-04T16:50:35;0.832;;;2.0469;;
43413;SDS011;73638;49.676;8.606;2024-02-04T16:55:41;0.6771;;;1.2214;;
43413;SDS011;73638;49.676;8.606;2024-02-04T17:00:49;0.6208;;;2.1266;;
43413;SDS011;73638;49.676;8.606;2024-02-04T17:05:57;0.8875;;;1.1744;;
43413;SDS011;73638;49.676;8.606;2024-02-04T17:11:02;0.6568;;;0.8196;;
43413;SDS011;73638;49.676;8.606;2024-02-04T17:16:12;0.8826;;;1.3362;;
43413;SDS011;73638;49.676;8.606;2024-02-04T17:21:17;0.8018;;;0.8662;;
43413;SDS011;73638;49.676;8.606;2024-02-04T17:26:23;0.4572;;;0.5323;;
43413;SDS011;73638;49.676;8.606;2024-02-04T17:31:30;0.862;;;1.0091;;
43413;SDS011;73638;49.676;8.606;2024-02-04T17:36:36;0.4105;;;0.4502;;
43413;SDS011;73638;49.676;8.606;2024-02-04T17:41:43;0.4825;;;0.46;;
43413;SDS011;73638;49.676;8.606;2024-02-04T17:46:50;0.6208;;;0.9566;;
43413;SDS011;73638;49.676;8.606;2024-02-04T17:51:57;0.4822;;;1.3779;;
43413;SDS011;73638;49.676;8.606;2024-02-04T17:57:04;0.4361;;;1.5679;;
43413;SDS011;73638;49.676;8.606;2024-02-04T18:02:10;0.4261;;;0.3938;;
43413;SDS011;73638;49.676;8.606;2024-02-04T18:07:17;0.5088;;;0.7473;;
43413;SDS011;73638;49.676;8.606;2024-02-04T18:12:29;0.4828;;;1.0214;;
43413;SDS011;73638;49.676;8.606;2024-02-04T18:17:33;0.3801;;;1.2587;;
43413;SDS011;73638;49.676;8.606;2024-02-04T18:22:38;0.3494;;;0.7561;;
43413;SDS011;73638;49.676;8.606;2024-02-04T18:27:45;0.2826;;;0.2616;;
43413;SDS011;73638;49.676;8.606;2024-02-04T18:32:51;0.7459;;;1.455;;
43413;SDS011;73638;49.676;8.606;2024-02-04T18:37:58;0.298;;;0.2995;;
43413;SDS011;73638;49.676;8.606;2024-02-04T18:43:05;0.3132;;;1.0726;;
43413;SDS011;73638;49.676;8.606;2024-02-04T18:48:12;0.3647;;;1.4111;;
43413;SDS011;73638;49.676;8.606;2024-02-04T18:53:19;0.3135;;;0.371;;
43413;SDS011;73638;49.676;8.606;2024-02-04T18:58:26;0.2825;;;0.2613;;
43413;SDS011;73638;49.676;8.606;2024-02-04T19:03:33;0.2724;;;0.3285;;
43413;SDS011;73638;49.676;8.606;2024-02-04T19:08:41;0.1388;;;0.2;;
43413;SDS011;73638;49.676;8.606;2024-02-04T19:13:45;0.2881;;;0.2864;;
43413;SDS011;73638;49.676;8.606;2024-02-04T19:18:54;0.4218;;;0.5056;;
43413;SDS011;73638;49.676;8.606;2024-02-04T19:23:59;0.2935;;;0.5168;;
43413;SDS011;73638;49.676;8.606;2024-02-04T19:29:05;0.2369;;;0.2632;;
43413;SDS011;73638;49.676;8.606;2024-02-04T19:29:07;0.2369;;;0.2632;;
43413;SDS011;73638;49.676;8.606;2024-02-04T19:34:14;0.3139;;;0.3821;;
43413;SDS011;73638;49.676;8.606;2024-02-04T19:39:21;0.2674;;;0.2478;;
43413;SDS011;73638;49.676;8.606;2024-02-04T19:44:28;0.3959;;;0.5051;;
43413;SDS011;73638;49.676;8.606;2024-02-04T19:49:35;0.1338;;;0.1861;;
43413;SDS011;73638;49.676;8.606;2024-02-04T19:54:42;0.1957;;;0.4736;;
43413;SDS011;73638;49.676;8.606;2024-02-04T19:59:48;0.1903;;;0.6728;;
43413;SDS011;73638;49.676;8.606;2024-02-04T20:04:55;0.2883;;;1.4681;;
43413;SDS011;73638;49.676;8.606;2024-02-04T20:10:02;0.2729;;;0.6365;;
43413;SDS011;73638;49.676;8.606;2024-02-04T20:15:09;0.1752;;;0.2255;;
43413;SDS011;73638;49.676;8.606;2024-02-04T20:20:16;0.283;;;0.2673;;
43413;SDS011;73638;49.676;8.606;2024-02-04T20:25:23;0.2009;;;0.3832;;
43413;SDS011;73638;49.676;8.606;2024-02-04T20:30:30;0.2572;;;0.4485;;
43413;SDS011;73638;49.676;8.606;2024-02-04T20:35:36;0.3246;;;0.3019;;
43413;SDS011;73638;49.676;8.606;2024-02-04T20:40:43;0.1853;;;0.1721;;
43413;SDS011;73638;49.676;8.606;2024-02-04T20:45:49;0.1956;;;0.2198;;
43413;SDS011;73638;49.676;8.606;2024-02-04T20:50:56;1.7455;;;1.7939;;
43413;SDS011;73638;49.676;8.606;2024-02-04T20:56:03;0.2473;;;0.2685;;
43413;SDS011;73638;49.676;8.606;2024-02-04T21:01:10;0.1958;;;0.532;;
43413;SDS011;73638;49.676;8.606;2024-02-04T21:06:17;0.2421;;;0.2251;;
43413;SDS011;73638;49.676;8.606;2024-02-04T21:11:25;0.0978;;;0.0908;;
43413;SDS011;73638;49.676;8.606;2024-02-04T21:16:30;0.1955;;;0.272;;
43413;SDS011;73638;49.676;8.606;2024-02-04T21:21:36;0.1955;;;3.2883;;
43413;SDS011;73638;49.676;8.606;2024-02-04T21:26:43;0.2006;;;0.1861;;
43413;SDS011;73638;49.676;8.606;2024-02-04T21:31:50;0.2728;;;0.258;;
43413;SDS011;73638;49.676;8.606;2024-02-04T21:36:57;0.278;;;0.4302;;
43413;SDS011;73638;49.676;8.606;2024-02-04T21:42:04;0.314;;;0.3634;;
43413;SDS011;73638;49.676;8.606;2024-02-04T21:47:11;0.3139;;;0.4633;;
43413;SDS011;73638;49.676;8.606;2024-02-04T21:52:17;0.2317;;;0.3012;;
43413;SDS011;73638;49.676;8.606;2024-02-04T21:57:24;0.3347;;;1.7466;;
43413;SDS011;73638;49.676;8.606;2024-02-04T22:02:31;0.1851;;;0.1954;;
43413;SDS011;73638;49.676;8.606;2024-02-04T22:07:38;0.2312;;;0.3185;;
43413;SDS011;73638;49.676;8.606;2024-02-04T22:12:44;0.2157;;;0.2469;;
43413;SDS011;73638;49.676;8.606;2024-02-04T22:17:51;0.3183;;;1.0055;;
43413;SDS011;73638;49.676;8.606;2024-02-04T22:22:58;0.3854;;;0.5184;;
43413;SDS011;73638;49.676;8.606;2024-02-04T22:28:05;0.2875;;;0.484;;
43413;SDS011;73638;49.676;8.606;2024-02-04T22:33:12;0.375;;;0.6131;;
43413;SDS011;73638;49.676;8.606;2024-02-04T22:38:18;0.2979;;;0.5652;;
43413;SDS011;73638;49.676;8.606;2024-02-04T22:43:25;0.3749;;;0.3942;;
43413;SDS011;73638;49.676;8.606;2024-02-04T22:48:32;0.2413;;;0.2231;;
43413;SDS011;73638;49.676;8.606;2024-02-04T22:53:39;0.4414;;;0.6307;;
43413;SDS011;73638;49.676;8.606;2024-02-04T22:58:45;0.2309;;;0.2131;;
43413;SDS011;73638;49.676;8.606;2024-02-04T23:03:52;0.2563;;;0.2363;;
43413;SDS011;73638;49.676;8.606;2024-02-04T23:08:59;0.2255;;;0.2833;;
43413;SDS011;73638;49.676;8.606;2024-02-04T23:14:05;0.1948;;;0.1795;;
43413;SDS011;73638;49.676;8.606;2024-02-04T23:19:12;0.3333;;;0.624;;
43413;SDS011;73638;49.676;8.606;2024-02-04T23:24:19;0.2206;;;0.5679;;
43413;SDS011;73638;49.676;8.606;2024-02-04T23:29:25;0.1846;;;0.4068;;
43413;SDS011;73638;49.676;8.606;2024-02-04T23:34:32;0.195;;;0.2226;;
43413;SDS011;73638;49.676;8.606;2024-02-04T23:39:39;0.1899;;;0.1753;;
43413;SDS011;73638;49.676;8.606;2024-02-04T23:44:46;0.1695;;;0.1568;;
43413;SDS011;73638;49.676;8.606;2024-02-04T23:49:53;0.3236;;;0.4466;;
43413;SDS011;73638;49.676;8.606;2024-02-04T23:54:59;0.6115;;;1.1081;;
